createdAt,value
2018-06-23T00:00:03.404Z,92.30
2018-06-23T00:02:32.369Z,91.97
2018-06-23T00:05:01.328Z,90.97
2018-06-23T00:07:30.360Z,90.25
2018-06-23T00:09:59.436Z,89.74
2018-06-23T00:12:28.556Z,89.56
2018-06-23T00:14:57.524Z,88.51
2018-06-23T00:17:26.599Z,87.31
2018-06-23T00:19:55.535Z,87.27
2018-06-23T00:22:24.531Z,87.22
2018-06-23T00:24:53.536Z,87.03
2018-06-23T00:27:22.612Z,85.66
2018-06-23T00:29:51.563Z,86.66
2018-06-23T00:32:20.572Z,85.78
2018-06-23T00:34:49.716Z,84.59
2018-06-23T00:37:18.708Z,85.01
2018-06-23T00:39:47.700Z,85.91
2018-06-23T00:42:16.698Z,85.34
2018-06-23T00:44:45.631Z,86.77
2018-06-23T00:47:14.568Z,85.93
2018-06-23T00:49:43.560Z,85.06
2018-06-23T00:52:12.539Z,85.29
2018-06-23T00:54:41.581Z,83.65
2018-06-23T00:57:10.586Z,82.42
2018-06-23T00:59:43.601Z,83.65
2018-06-23T01:02:12.661Z,85.00
2018-06-23T01:04:41.773Z,84.26
2018-06-23T01:07:11.820Z,84.58
2018-06-23T01:09:40.820Z,85.10
2018-06-23T01:12:09.829Z,82.81
2018-06-23T01:14:38.756Z,82.40
2018-06-23T01:17:10.192Z,81.96
2018-06-23T01:19:39.268Z,81.83
2018-06-23T01:22:08.223Z,81.19
2018-06-23T01:24:37.200Z,80.74
2018-06-23T01:27:06.210Z,81.14
2018-06-23T01:29:36.109Z,81.19
2018-06-23T01:32:05.118Z,80.28
2018-06-23T01:34:34.157Z,80.94
2018-06-23T01:37:03.216Z,80.63
2018-06-23T01:39:32.223Z,81.75
2018-06-23T01:42:01.209Z,82.27
2018-06-23T01:44:30.179Z,80.13
2018-06-23T01:46:59.227Z,78.80
2018-06-23T01:49:28.204Z,77.72
2018-06-23T01:51:57.127Z,78.41
2018-06-23T01:54:26.075Z,78.54
2018-06-23T01:56:55.057Z,78.67
2018-06-23T01:59:24.004Z,79.51
2018-06-23T02:01:52.997Z,79.27
2018-06-23T02:04:21.944Z,78.80
2018-06-23T02:06:50.856Z,79.51
2018-06-23T02:09:19.920Z,79.72
2018-06-23T02:11:48.908Z,79.80
2018-06-23T02:15:25.521Z,78.07
2018-06-23T02:17:59.644Z,77.73
2018-06-23T02:20:33.616Z,78.91
2018-06-23T02:23:07.600Z,77.74
2018-06-23T02:25:41.728Z,77.99
2018-06-23T02:28:15.788Z,76.76
2018-06-23T02:30:49.921Z,76.67
2018-06-23T02:33:23.929Z,77.53
2018-06-23T02:35:52.924Z,76.62
2018-06-23T02:38:21.981Z,77.65
2018-06-23T02:40:50.968Z,75.27
2018-06-23T02:43:19.940Z,75.94
2018-06-23T02:45:48.896Z,76.05
2018-06-23T02:48:17.898Z,76.54
2018-06-23T02:50:46.916Z,73.37
2018-06-23T02:53:15.892Z,73.97
2018-06-23T02:55:44.844Z,74.34
2018-06-23T02:58:13.775Z,73.62
2018-06-23T03:00:42.732Z,72.05
2018-06-23T03:03:11.773Z,74.25
2018-06-23T03:05:40.731Z,72.54
2018-06-23T03:08:09.770Z,71.07
2018-06-23T03:10:38.727Z,70.76
2018-06-23T03:13:07.719Z,70.12
2018-06-23T03:15:36.733Z,69.35
2018-06-23T03:18:05.985Z,70.86
2018-06-23T03:20:35.007Z,69.44
2018-06-23T03:23:03.961Z,69.00
2018-06-23T03:25:32.964Z,69.79
2018-06-23T03:28:02.113Z,69.16
2018-06-23T03:30:31.060Z,69.58
2018-06-23T03:32:59.991Z,68.33
2018-06-23T03:35:28.940Z,68.11
2018-06-23T03:37:57.871Z,68.37
2018-06-23T03:40:26.996Z,68.04
2018-06-23T03:42:56.052Z,68.27
2018-06-23T03:45:25.016Z,69.62
2018-06-23T03:47:53.952Z,68.29
2018-06-23T03:50:22.941Z,69.31
2018-06-23T03:52:51.944Z,68.61
2018-06-23T03:55:21.044Z,68.79
2018-06-23T03:57:50.110Z,67.89
2018-06-23T04:00:19.170Z,67.27
2018-06-23T04:02:48.201Z,66.28
2018-06-23T04:05:17.209Z,67.79
2018-06-23T04:07:46.147Z,66.34
2018-06-23T04:10:15.136Z,66.91
2018-06-23T04:12:44.160Z,66.29
2018-06-23T04:15:13.209Z,68.27
2018-06-23T04:17:42.184Z,68.79
2018-06-23T04:20:11.172Z,67.63
2018-06-23T04:22:40.184Z,67.57
2018-06-23T04:25:09.168Z,69.19
2018-06-23T04:27:38.129Z,67.24
2018-06-23T04:30:07.133Z,67.86
2018-06-23T04:32:36.165Z,67.31
2018-06-23T04:35:05.220Z,68.65
2018-06-23T04:37:34.388Z,67.00
2018-06-23T04:40:03.331Z,67.91
2018-06-23T04:42:32.288Z,67.02
2018-06-23T04:45:01.313Z,65.22
2018-06-23T04:47:30.308Z,65.88
2018-06-23T04:49:59.315Z,65.66
2018-06-23T04:52:28.279Z,65.05
2018-06-23T04:54:57.203Z,65.66
2018-06-23T04:57:26.248Z,64.07
2018-06-23T04:59:55.179Z,62.68
2018-06-23T05:02:24.140Z,62.08
2018-06-23T05:04:53.071Z,60.73
2018-06-23T05:07:22.086Z,60.98
2018-06-23T05:09:51.088Z,60.31
2018-06-23T05:12:20.136Z,60.59
2018-06-23T05:14:49.141Z,60.85
2018-06-23T05:17:18.084Z,60.63
2018-06-23T05:19:47.070Z,59.46
2018-06-23T05:22:16.008Z,61.44
2018-06-23T05:24:45.006Z,61.12
2018-06-23T05:27:13.959Z,61.73
2018-06-23T05:29:42.966Z,60.05
2018-06-23T05:32:11.908Z,61.03
2018-06-23T05:34:40.929Z,60.80
2018-06-23T05:37:09.925Z,62.74
2018-06-23T05:39:38.973Z,61.79
2018-06-23T05:42:07.960Z,62.46
2018-06-23T05:44:36.993Z,60.88
2018-06-23T05:47:05.940Z,61.74
2018-06-23T05:49:34.871Z,59.30
2018-06-23T05:52:03.865Z,59.32
2018-06-23T05:54:32.875Z,59.80
2018-06-23T05:57:01.945Z,55.76
2018-06-23T05:59:30.895Z,55.14
2018-06-23T06:01:59.853Z,54.29
2018-06-23T06:04:28.845Z,56.18
2018-06-23T06:06:57.920Z,56.27
2018-06-23T06:09:27.180Z,57.31
2018-06-23T06:11:56.201Z,55.59
2018-06-23T06:14:25.247Z,57.36
2018-06-23T06:17:33.568Z,57.60
2018-06-23T06:20:04.742Z,56.21
2018-06-23T06:22:35.067Z,55.96
2018-06-23T06:25:04.138Z,55.23
2018-06-23T06:27:33.208Z,54.88
2018-06-23T06:30:02.160Z,54.91
2018-06-23T06:32:31.119Z,55.43
2018-06-23T06:35:00.193Z,56.69
2018-06-23T06:37:29.196Z,53.59
2018-06-23T06:39:58.277Z,54.11
2018-06-23T06:42:27.216Z,53.73
2018-06-23T06:44:56.172Z,53.73
2018-06-23T06:47:25.152Z,57.49
2018-06-23T06:49:54.105Z,57.21
2018-06-23T06:52:23.036Z,55.71
2018-06-23T06:54:52.048Z,57.55
2018-06-23T06:57:21.049Z,55.57
2018-06-23T06:59:50.065Z,57.26
2018-06-23T07:02:18.996Z,55.65
2018-06-23T07:04:47.948Z,56.66
2018-06-23T07:07:16.931Z,55.57
2018-06-23T07:09:45.944Z,54.60
2018-06-23T07:12:14.976Z,55.05
2018-06-23T07:14:43.943Z,54.03
2018-06-23T07:17:12.933Z,53.74
2018-06-23T07:19:41.943Z,54.80
2018-06-23T07:22:10.872Z,55.55
2018-06-23T07:24:39.863Z,56.56
2018-06-23T07:27:08.925Z,56.60
2018-06-23T07:29:37.905Z,57.37
2018-06-23T07:32:06.993Z,56.16
2018-06-23T07:34:36.053Z,57.37
2018-06-23T07:37:05.065Z,57.05
2018-06-23T07:39:34.158Z,57.19
2018-06-23T07:42:03.136Z,57.82
2018-06-23T07:44:32.085Z,55.90
2018-06-23T07:47:01.036Z,55.26
2018-06-23T07:49:30.049Z,55.75
2018-06-23T07:51:59.100Z,54.65
2018-06-23T07:54:28.125Z,54.60
2018-06-23T07:56:57.058Z,54.83
2018-06-23T07:59:26.104Z,53.86
2018-06-23T08:01:55.316Z,53.47
2018-06-23T08:04:24.320Z,54.40
2018-06-23T08:06:53.249Z,53.37
2018-06-23T08:09:22.195Z,53.06
2018-06-23T08:11:51.294Z,52.31
2018-06-23T08:14:20.219Z,49.92
2018-06-23T08:16:49.174Z,49.31
2018-06-23T08:19:18.196Z,50.69
2018-06-23T08:21:47.173Z,49.63
2018-06-23T08:24:16.159Z,50.21
2018-06-23T08:26:45.168Z,50.74
2018-06-23T08:29:14.154Z,51.47
2018-06-23T08:31:43.091Z,53.40
2018-06-23T08:34:12.019Z,53.22
2018-06-23T08:36:41.049Z,55.19
2018-06-23T08:39:10.091Z,56.67
2018-06-23T08:41:39.176Z,55.02
2018-06-23T08:44:08.183Z,56.40
2018-06-23T08:46:37.197Z,57.74
2018-06-23T08:49:06.478Z,58.04
2018-06-23T08:51:35.509Z,58.87
2018-06-23T08:54:04.545Z,62.51
2018-06-23T08:56:33.664Z,62.03
2018-06-23T08:59:02.688Z,61.09
2018-06-23T09:01:31.625Z,62.96
2018-06-23T09:04:00.556Z,63.33
2018-06-23T09:06:29.578Z,60.05
2018-06-23T09:08:58.531Z,64.24
2018-06-23T09:11:27.628Z,60.31
2018-06-23T09:13:56.653Z,59.74
2018-06-23T09:16:25.658Z,56.52
2018-06-23T09:18:54.604Z,57.72
2018-06-23T09:21:23.633Z,56.04
2018-06-23T09:23:52.639Z,53.10
2018-06-23T09:26:21.644Z,52.40
2018-06-23T09:28:50.685Z,50.87
2018-06-23T09:31:19.720Z,50.96
2018-06-23T09:33:48.662Z,53.63
2018-06-23T09:36:17.664Z,49.55
2018-06-23T09:38:46.736Z,49.89
2018-06-23T09:41:15.764Z,51.37
2018-06-23T09:43:44.706Z,50.06
2018-06-23T09:46:13.762Z,50.21
2018-06-23T09:48:42.731Z,49.96
2018-06-23T09:51:11.797Z,48.99
2018-06-23T09:53:40.812Z,50.69
2018-06-23T09:56:10.150Z,49.60
2018-06-23T09:58:39.162Z,47.72
2018-06-23T10:01:08.246Z,48.46
2018-06-23T10:03:37.244Z,46.60
2018-06-23T10:06:06.276Z,47.79
2018-06-23T10:08:35.332Z,47.25
2018-06-23T10:11:04.280Z,47.38
2018-06-23T10:13:33.405Z,48.07
2018-06-23T10:16:02.654Z,47.47
2018-06-23T10:18:31.700Z,48.83
2018-06-23T10:21:00.645Z,46.18
2018-06-23T10:23:29.648Z,48.62
2018-06-23T10:25:58.701Z,45.64
2018-06-23T10:28:27.859Z,46.14
2018-06-23T10:30:56.907Z,46.88
2018-06-23T10:33:25.889Z,48.32
2018-06-23T10:35:54.844Z,48.24
2018-06-23T10:38:23.913Z,48.27
2018-06-23T10:40:52.915Z,49.51
2018-06-23T10:43:21.844Z,50.06
2018-06-23T10:45:50.837Z,49.36
2018-06-23T10:48:19.864Z,48.45
2018-06-23T10:50:48.816Z,48.33
2018-06-23T10:53:17.840Z,49.07
2018-06-23T10:55:46.775Z,50.29
2018-06-23T10:58:15.804Z,49.26
2018-06-23T11:00:44.804Z,48.49
2018-06-23T11:03:13.870Z,45.16
2018-06-23T11:05:42.932Z,47.28
2018-06-23T11:08:12.025Z,44.36
2018-06-23T11:10:40.983Z,43.95
2018-06-23T11:13:10.068Z,44.06
2018-06-23T11:15:39.119Z,41.89
2018-06-23T11:18:08.108Z,40.14
2018-06-23T11:20:37.411Z,40.26
2018-06-23T11:23:06.432Z,37.95
2018-06-23T11:25:35.421Z,41.25
2018-06-23T11:28:04.360Z,38.50
2018-06-23T11:30:33.381Z,36.50
2018-06-23T11:33:02.441Z,38.64
2018-06-23T11:35:31.430Z,38.59
2018-06-23T11:38:00.445Z,38.97
2018-06-23T11:40:29.436Z,38.55
2018-06-23T11:42:58.497Z,40.23
2018-06-23T11:45:27.442Z,40.25
2018-06-23T11:47:56.452Z,39.74
2018-06-23T11:50:25.434Z,37.00
2018-06-23T11:52:54.472Z,36.37
2018-06-23T11:55:23.395Z,35.24
2018-06-23T11:57:52.396Z,34.03
2018-06-23T12:00:21.401Z,34.83
2018-06-23T12:02:50.359Z,34.82
2018-06-23T12:05:19.344Z,36.25
2018-06-23T12:07:48.353Z,34.25
2018-06-23T12:10:17.320Z,34.25
2018-06-23T12:12:46.280Z,34.97
2018-06-23T12:15:15.199Z,34.78
2018-06-23T12:17:44.169Z,35.78
2018-06-23T12:20:13.169Z,33.34
2018-06-23T12:22:42.096Z,34.28
2018-06-23T12:25:11.023Z,33.23
2018-06-23T12:27:39.960Z,33.29
2018-06-23T12:30:08.989Z,33.03
2018-06-23T12:32:37.965Z,34.43
2018-06-23T12:35:06.980Z,34.74
2018-06-23T12:37:35.986Z,33.67
2018-06-23T12:40:05.069Z,33.89
2018-06-23T12:42:34.153Z,32.68
2018-06-23T12:45:03.109Z,33.15
2018-06-23T12:47:32.047Z,33.23
2018-06-23T12:50:00.976Z,33.26
2018-06-23T12:52:29.985Z,33.29
2018-06-23T12:54:59.173Z,31.05
2018-06-23T12:57:28.135Z,31.83
2018-06-23T12:59:57.133Z,31.20
2018-06-23T13:02:26.120Z,32.72
2018-06-23T13:04:55.185Z,31.87
2018-06-23T13:07:24.172Z,31.43
2018-06-23T13:09:53.136Z,31.64
2018-06-23T13:12:22.116Z,32.13
2018-06-23T13:14:51.108Z,31.79
2018-06-23T13:17:20.173Z,32.68
2018-06-23T13:19:49.184Z,31.00
2018-06-23T13:22:18.284Z,31.06
2018-06-23T13:24:47.267Z,32.24
2018-06-23T13:27:16.260Z,31.52
2018-06-23T13:29:45.323Z,31.83
2018-06-23T13:32:14.276Z,31.72
2018-06-23T13:34:43.237Z,32.99
2018-06-23T13:37:12.277Z,34.57
2018-06-23T13:39:41.270Z,33.85
2018-06-23T13:42:10.768Z,35.24
2018-06-23T13:44:39.829Z,34.83
2018-06-23T13:47:08.977Z,34.63
2018-06-23T13:49:37.988Z,36.15
2018-06-23T13:52:07.245Z,38.67
2018-06-23T13:54:36.281Z,38.51
2018-06-23T13:57:05.398Z,36.71
2018-06-23T13:59:34.479Z,36.84
2018-06-23T14:02:03.484Z,39.63
2018-06-23T14:04:32.510Z,37.09
2018-06-23T14:07:01.504Z,39.24
2018-06-23T14:09:30.544Z,38.88
2018-06-23T14:11:59.556Z,40.38
2018-06-23T14:14:28.608Z,39.44
2018-06-23T14:16:57.609Z,37.67
2018-06-23T14:19:26.870Z,39.51
2018-06-23T14:21:55.848Z,37.09
2018-06-23T14:24:25.050Z,36.88
2018-06-23T14:26:54.108Z,36.42
2018-06-23T14:29:23.090Z,36.33
2018-06-23T14:31:52.418Z,35.04
2018-06-23T14:34:21.232Z,35.64
2018-06-23T14:36:50.301Z,35.85
2018-06-23T14:39:19.255Z,37.16
2018-06-23T14:41:48.272Z,38.63
2018-06-23T14:44:17.378Z,37.32
2018-06-23T14:46:46.423Z,39.29
2018-06-23T14:49:15.441Z,38.30
2018-06-23T14:51:44.496Z,38.25
2018-06-23T14:54:13.581Z,37.14
2018-06-23T14:56:42.544Z,36.63
2018-06-23T14:59:11.586Z,37.05
2018-06-23T15:01:40.628Z,36.65
2018-06-23T15:04:09.645Z,38.06
2018-06-23T15:06:38.590Z,38.46
2018-06-23T15:09:18.432Z,37.41
2018-06-23T15:11:58.417Z,37.10
2018-06-23T15:14:27.384Z,37.91
2018-06-23T15:16:56.405Z,38.98
2018-06-23T15:19:25.477Z,39.85
2018-06-23T15:21:54.538Z,38.89
2018-06-23T15:24:23.545Z,39.92
2018-06-23T15:26:52.500Z,39.48
2018-06-23T15:29:21.615Z,39.75
2018-06-23T15:31:50.583Z,39.17
2018-06-23T15:34:19.528Z,39.77
2018-06-23T15:36:48.512Z,40.86
2018-06-23T15:39:17.472Z,42.13
2018-06-23T15:41:46.533Z,39.67
2018-06-23T15:44:15.503Z,39.53
2018-06-23T15:46:44.516Z,40.88
2018-06-23T15:49:13.536Z,41.24
2018-06-23T15:51:42.576Z,42.15
2018-06-23T15:54:11.596Z,41.57
2018-06-23T15:56:40.592Z,41.44
2018-06-23T15:59:09.677Z,42.71
2018-06-23T16:01:38.672Z,41.96
2018-06-23T16:04:07.715Z,42.60
2018-06-23T16:06:36.705Z,43.03
2018-06-23T16:09:09.139Z,43.29
2018-06-23T16:11:38.122Z,43.04
2018-06-23T16:14:07.148Z,42.22
2018-06-23T16:16:36.267Z,42.64
2018-06-23T16:19:05.204Z,43.36
2018-06-23T16:21:34.253Z,42.81
2018-06-23T16:24:03.260Z,43.34
2018-06-23T16:26:32.277Z,43.74
2018-06-23T16:29:01.341Z,44.39
2018-06-23T16:31:30.381Z,43.10
2018-06-23T16:33:59.392Z,44.34
2018-06-23T16:36:28.408Z,45.68
2018-06-23T16:38:57.479Z,45.80
2018-06-23T16:41:26.505Z,44.87
2018-06-23T16:43:55.509Z,44.69
2018-06-23T16:46:24.520Z,46.43
2018-06-23T16:48:53.476Z,45.97
2018-06-23T16:51:22.499Z,46.52
2018-06-23T16:53:51.486Z,45.88
2018-06-23T16:56:20.470Z,47.43
2018-06-23T16:58:49.472Z,47.60
2018-06-23T17:01:18.542Z,47.40
2018-06-23T17:03:47.700Z,47.17
2018-06-23T17:06:16.675Z,47.78
2018-06-23T17:08:45.735Z,47.43
2018-06-23T17:11:14.721Z,48.00
2018-06-23T17:13:43.729Z,47.81
2018-06-23T17:16:12.905Z,48.07
2018-06-23T17:18:41.776Z,49.66
2018-06-23T17:21:10.729Z,48.93
2018-06-23T17:23:39.717Z,47.89
2018-06-23T17:26:08.805Z,49.44
2018-06-23T17:28:37.809Z,50.41
2018-06-23T17:31:06.832Z,48.75
2018-06-23T17:33:35.776Z,48.65
2018-06-23T17:36:04.908Z,50.41
2018-06-23T17:38:34.054Z,50.37
2018-06-23T17:41:03.090Z,50.03
2018-06-23T17:43:32.101Z,50.46
2018-06-23T17:46:01.092Z,50.24
2018-06-23T17:48:30.092Z,50.75
2018-06-23T17:50:59.130Z,51.13
2018-06-23T17:53:28.115Z,51.23
2018-06-23T17:55:57.140Z,50.70
2018-06-23T17:58:26.137Z,50.44
2018-06-23T18:00:55.152Z,50.20
2018-06-23T18:03:24.167Z,51.03
2018-06-23T18:05:53.181Z,51.63
2018-06-23T18:08:22.219Z,50.16
2018-06-23T18:10:51.168Z,50.86
2018-06-23T18:13:20.176Z,50.79
2018-06-23T18:15:49.205Z,51.84
2018-06-23T18:18:18.219Z,51.94
2018-06-23T18:20:47.244Z,50.70
2018-06-23T18:23:16.292Z,51.84
2018-06-23T18:25:45.251Z,51.48
2018-06-23T18:28:14.204Z,50.54
2018-06-23T18:30:43.175Z,50.94
2018-06-23T18:33:12.224Z,50.44
2018-06-23T18:35:41.265Z,50.65
2018-06-23T18:38:10.497Z,50.36
2018-06-23T18:40:39.460Z,52.27
2018-06-23T18:43:08.512Z,50.87
2018-06-23T18:45:37.444Z,51.13
2018-06-23T18:50:42.304Z,50.10
2018-06-23T18:53:11.396Z,52.21
2018-06-23T18:55:40.493Z,50.92
2018-06-23T18:58:09.451Z,51.01
2018-06-23T19:00:38.475Z,52.03
2018-06-23T19:03:07.513Z,51.46
2018-06-23T19:05:36.456Z,51.35
2018-06-23T19:08:05.741Z,52.07
2018-06-23T19:10:34.687Z,52.04
2018-06-23T19:13:03.773Z,50.68
2018-06-23T19:15:32.736Z,51.89
2018-06-23T19:18:01.696Z,51.73
2018-06-23T19:20:30.712Z,51.73
2018-06-23T19:22:59.729Z,50.38
2018-06-23T19:25:28.660Z,51.33
2018-06-23T19:27:57.708Z,51.18
2018-06-23T19:30:26.747Z,50.41
2018-06-23T19:32:55.829Z,50.84
2018-06-23T19:35:24.833Z,51.63
2018-06-23T19:37:53.801Z,51.81
2018-06-23T19:40:22.801Z,50.84
2018-06-23T19:42:51.870Z,52.32
2018-06-23T19:45:20.873Z,51.61
2018-06-23T19:47:49.905Z,51.65
2018-06-23T19:50:18.847Z,52.80
2018-06-23T19:52:47.828Z,52.76
2018-06-23T19:55:16.767Z,51.97
2018-06-23T19:57:45.787Z,52.23
2018-06-23T20:00:14.857Z,52.73
2018-06-23T20:02:43.885Z,52.50
2018-06-23T20:05:12.847Z,53.08
2018-06-23T20:07:41.934Z,53.11
2018-06-23T20:10:10.883Z,52.87
2018-06-23T20:12:39.872Z,52.81
2018-06-23T20:15:08.888Z,54.09
2018-06-23T20:17:37.985Z,53.58
2018-06-23T20:20:07.551Z,53.16
2018-06-23T20:22:36.516Z,52.69
2018-06-23T20:25:05.509Z,52.83
2018-06-23T20:27:34.484Z,52.60
2018-06-23T20:30:03.493Z,52.80
2018-06-23T20:32:32.512Z,52.19
2018-06-23T20:35:01.552Z,52.98
2018-06-23T20:37:30.576Z,52.74
2018-06-23T20:39:59.540Z,52.97
2018-06-23T20:42:28.633Z,53.45
2018-06-23T20:44:57.637Z,53.85
2018-06-23T20:47:26.780Z,53.69
2018-06-23T20:49:55.852Z,52.94
2018-06-23T20:52:24.804Z,52.60
2018-06-23T20:54:53.781Z,53.99
2018-06-23T20:57:22.804Z,53.09
2018-06-23T20:59:51.812Z,53.18
2018-06-23T21:02:20.830Z,53.99
2018-06-23T21:04:49.851Z,54.33
2018-06-23T21:07:18.912Z,54.64
2018-06-23T21:09:47.933Z,54.62
2018-06-23T21:12:16.949Z,54.54
2018-06-23T21:14:45.948Z,54.39
2018-06-23T21:17:14.904Z,55.72
2018-06-23T21:19:43.957Z,54.99
2018-06-23T21:22:12.982Z,54.35
2018-06-23T21:24:42.108Z,54.74
2018-06-23T21:27:11.457Z,56.76
2018-06-23T21:29:40.563Z,56.58
2018-06-23T21:32:09.577Z,56.11
2018-06-23T21:34:38.534Z,56.23
2018-06-23T21:37:07.545Z,56.69
2018-06-23T21:39:36.494Z,57.39
2018-06-23T21:42:05.503Z,59.00
2018-06-23T21:44:34.476Z,58.44
2018-06-23T21:47:03.429Z,58.40
2018-06-23T21:49:32.412Z,58.71
2018-06-23T21:52:01.448Z,59.73
2018-06-23T21:54:30.436Z,57.97
2018-06-23T21:56:59.438Z,58.14
2018-06-23T21:59:28.451Z,59.92
2018-06-23T22:01:57.406Z,58.26
2018-06-23T22:04:26.438Z,59.31
2018-06-23T22:06:55.397Z,60.15
2018-06-23T22:09:24.401Z,60.37
2018-06-23T22:11:53.424Z,59.26
2018-06-23T22:14:22.417Z,59.52
2018-06-23T22:16:51.369Z,58.94
2018-06-23T22:19:20.331Z,59.38
2018-06-23T22:21:49.338Z,59.92
2018-06-23T22:24:18.305Z,58.71
2018-06-23T22:26:47.481Z,59.28
2018-06-23T22:29:16.464Z,58.93
2018-06-23T22:31:45.440Z,59.27
2018-06-23T22:34:14.533Z,59.09
2018-06-23T22:36:43.561Z,59.17
2018-06-23T22:39:13.545Z,59.16
2018-06-23T22:41:42.520Z,60.69
2018-06-23T22:44:11.481Z,60.84
2018-06-23T22:46:40.429Z,60.57
2018-06-23T22:49:09.460Z,60.43
2018-06-23T22:51:38.399Z,61.08
2018-06-23T22:54:07.380Z,60.76
2018-06-23T22:56:36.344Z,61.66
2018-06-23T22:59:05.334Z,60.73
2018-06-23T23:01:34.449Z,61.36
2018-06-23T23:04:03.557Z,62.20
2018-06-23T23:06:32.680Z,62.06
2018-06-23T23:09:01.769Z,62.81
2018-06-23T23:11:30.736Z,61.90
2018-06-23T23:13:59.721Z,62.96
2018-06-23T23:16:28.729Z,62.96
2018-06-23T23:18:57.743Z,62.35
2018-06-23T23:21:26.760Z,62.02
2018-06-23T23:23:55.849Z,62.52
2018-06-23T23:26:24.804Z,64.02
2018-06-23T23:28:53.881Z,62.82
2018-06-23T23:31:22.844Z,63.06
2018-06-23T23:33:51.800Z,62.34
2018-06-23T23:36:20.775Z,62.24
2018-06-23T23:38:49.785Z,62.19
2018-06-23T23:41:18.810Z,62.28
2018-06-23T23:43:47.772Z,61.85
2018-06-23T23:46:16.739Z,61.28
2018-06-23T23:48:45.680Z,61.63
2018-06-23T23:51:14.721Z,62.35
2018-06-23T23:53:43.685Z,62.22
2018-06-23T23:56:12.760Z,61.94
2018-06-23T23:58:41.728Z,62.98
